sensor_id;sensor_type;location;lat;lon;timestamp;P1;durP1;ratioP1;P2;durP2;ratioP2
11877;SDS011;5998;42.676;23.268;2022-08-23T00:01:40;14.63;;;11.37;;
11877;SDS011;5998;42.676;23.268;2022-08-23T00:04:09;15.27;;;11.00;;
11877;SDS011;5998;42.676;23.268;2022-08-23T00:06:39;15.80;;;10.97;;
11877;SDS011;5998;42.676;23.268;2022-08-23T00:09:06;15.30;;;11.57;;
11877;SDS011;5998;42.676;23.268;2022-08-23T00:11:37;14.20;;;11.50;;
11877;SDS011;5998;42.676;23.268;2022-08-23T00:14:06;18.50;;;11.93;;
11877;SDS011;5998;42.676;23.268;2022-08-23T00:16:36;19.60;;;12.53;;
11877;SDS011;5998;42.676;23.268;2022-08-23T00:19:05;16.50;;;12.37;;
11877;SDS011;5998;42.676;23.268;2022-08-23T00:21:33;16.83;;;12.77;;
11877;SDS011;5998;42.676;23.268;2022-08-23T00:24:00;16.77;;;13.30;;
11877;SDS011;5998;42.676;23.268;2022-08-23T00:29:18;17.93;;;13.03;;
11877;SDS011;5998;42.676;23.268;2022-08-23T00:31:45;18.90;;;13.60;;
11877;SDS011;5998;42.676;23.268;2022-08-23T00:34:12;18.30;;;13.20;;
11877;SDS011;5998;42.676;23.268;2022-08-23T00:36:39;16.20;;;13.30;;
11877;SDS011;5998;42.676;23.268;2022-08-23T00:39:06;14.80;;;13.17;;
11877;SDS011;5998;42.676;23.268;2022-08-23T00:41:33;14.93;;;13.13;;
11877;SDS011;5998;42.676;23.268;2022-08-23T00:44:00;16.27;;;13.37;;
11877;SDS011;5998;42.676;23.268;2022-08-23T00:46:46;17.83;;;14.23;;
11877;SDS011;5998;42.676;23.268;2022-08-23T00:49:34;16.33;;;14.50;;
11877;SDS011;5998;42.676;23.268;2022-08-23T00:52:04;16.10;;;14.40;;
11877;SDS011;5998;42.676;23.268;2022-08-23T00:54:35;18.73;;;15.30;;
11877;SDS011;5998;42.676;23.268;2022-08-23T00:57:07;22.23;;;15.63;;
11877;SDS011;5998;42.676;23.268;2022-08-23T00:59:37;19.73;;;16.07;;
11877;SDS011;5998;42.676;23.268;2022-08-23T01:02:06;18.67;;;16.40;;
11877;SDS011;5998;42.676;23.268;2022-08-23T01:04:36;19.20;;;15.30;;
11877;SDS011;5998;42.676;23.268;2022-08-23T01:07:07;17.67;;;14.93;;
11877;SDS011;5998;42.676;23.268;2022-08-23T01:09:40;22.23;;;16.70;;
11877;SDS011;5998;42.676;23.268;2022-08-23T01:12:10;19.13;;;15.90;;
11877;SDS011;5998;42.676;23.268;2022-08-23T01:14:42;20.83;;;15.87;;
11877;SDS011;5998;42.676;23.268;2022-08-23T01:17:15;21.90;;;16.50;;
11877;SDS011;5998;42.676;23.268;2022-08-23T01:19:48;19.37;;;15.47;;
11877;SDS011;5998;42.676;23.268;2022-08-23T01:22:19;20.37;;;16.47;;
11877;SDS011;5998;42.676;23.268;2022-08-23T01:24:53;20.30;;;16.27;;
11877;SDS011;5998;42.676;23.268;2022-08-23T01:27:20;23.00;;;17.20;;
11877;SDS011;5998;42.676;23.268;2022-08-23T01:29:47;17.97;;;15.40;;
11877;SDS011;5998;42.676;23.268;2022-08-23T01:32:14;21.00;;;16.23;;
11877;SDS011;5998;42.676;23.268;2022-08-23T01:34:41;21.07;;;16.37;;
11877;SDS011;5998;42.676;23.268;2022-08-23T01:37:08;23.20;;;17.23;;
11877;SDS011;5998;42.676;23.268;2022-08-23T01:39:35;22.63;;;17.77;;
11877;SDS011;5998;42.676;23.268;2022-08-23T01:42:04;19.80;;;16.30;;
11877;SDS011;5998;42.676;23.268;2022-08-23T01:44:32;18.57;;;16.30;;
11877;SDS011;5998;42.676;23.268;2022-08-23T01:46:59;22.20;;;17.37;;
11877;SDS011;5998;42.676;23.268;2022-08-23T01:49:25;20.70;;;16.30;;
11877;SDS011;5998;42.676;23.268;2022-08-23T01:51:53;25.37;;;18.10;;
11877;SDS011;5998;42.676;23.268;2022-08-23T01:54:20;28.10;;;18.90;;
11877;SDS011;5998;42.676;23.268;2022-08-23T01:56:47;27.63;;;20.27;;
11877;SDS011;5998;42.676;23.268;2022-08-23T01:59:15;27.83;;;20.87;;
11877;SDS011;5998;42.676;23.268;2022-08-23T02:01:44;24.03;;;20.83;;
11877;SDS011;5998;42.676;23.268;2022-08-23T02:04:11;25.70;;;21.97;;
11877;SDS011;5998;42.676;23.268;2022-08-23T02:06:38;26.43;;;21.30;;
11877;SDS011;5998;42.676;23.268;2022-08-23T02:09:05;25.30;;;20.70;;
11877;SDS011;5998;42.676;23.268;2022-08-23T02:11:32;25.17;;;20.90;;
11877;SDS011;5998;42.676;23.268;2022-08-23T02:14:02;24.27;;;20.93;;
11877;SDS011;5998;42.676;23.268;2022-08-23T02:16:34;25.67;;;20.63;;
11877;SDS011;5998;42.676;23.268;2022-08-23T02:19:03;27.00;;;21.47;;
11877;SDS011;5998;42.676;23.268;2022-08-23T02:21:31;25.97;;;19.97;;
11877;SDS011;5998;42.676;23.268;2022-08-23T02:23:59;25.90;;;20.40;;
11877;SDS011;5998;42.676;23.268;2022-08-23T02:26:28;22.80;;;18.80;;
11877;SDS011;5998;42.676;23.268;2022-08-23T02:28:55;24.83;;;19.23;;
11877;SDS011;5998;42.676;23.268;2022-08-23T02:31:22;20.13;;;18.07;;
11877;SDS011;5998;42.676;23.268;2022-08-23T02:33:51;19.67;;;16.73;;
11877;SDS011;5998;42.676;23.268;2022-08-23T02:36:19;23.20;;;17.27;;
11877;SDS011;5998;42.676;23.268;2022-08-23T02:38:45;20.53;;;17.57;;
11877;SDS011;5998;42.676;23.268;2022-08-23T02:41:12;19.00;;;14.77;;
11877;SDS011;5998;42.676;23.268;2022-08-23T02:43:40;17.73;;;15.13;;
11877;SDS011;5998;42.676;23.268;2022-08-23T02:46:07;16.30;;;14.60;;
11877;SDS011;5998;42.676;23.268;2022-08-23T02:48:34;14.77;;;13.17;;
11877;SDS011;5998;42.676;23.268;2022-08-23T02:51:03;13.17;;;11.80;;
11877;SDS011;5998;42.676;23.268;2022-08-23T02:53:33;14.80;;;11.20;;
11877;SDS011;5998;42.676;23.268;2022-08-23T02:56:01;12.30;;;10.70;;
11877;SDS011;5998;42.676;23.268;2022-08-23T02:58:28;15.60;;;10.90;;
11877;SDS011;5998;42.676;23.268;2022-08-23T03:00:55;12.77;;;11.00;;
11877;SDS011;5998;42.676;23.268;2022-08-23T03:03:22;11.10;;;10.10;;
11877;SDS011;5998;42.676;23.268;2022-08-23T03:05:49;11.53;;;10.30;;
11877;SDS011;5998;42.676;23.268;2022-08-23T03:08:17;11.20;;;10.20;;
11877;SDS011;5998;42.676;23.268;2022-08-23T03:10:45;11.40;;;8.67;;
11877;SDS011;5998;42.676;23.268;2022-08-23T03:13:14;11.10;;;8.77;;
11877;SDS011;5998;42.676;23.268;2022-08-23T03:15:41;9.00;;;8.13;;
11877;SDS011;5998;42.676;23.268;2022-08-23T03:18:08;9.03;;;8.07;;
11877;SDS011;5998;42.676;23.268;2022-08-23T03:20:37;9.73;;;8.83;;
11877;SDS011;5998;42.676;23.268;2022-08-23T03:23:04;9.43;;;8.53;;
11877;SDS011;5998;42.676;23.268;2022-08-23T03:25:33;9.80;;;8.10;;
11877;SDS011;5998;42.676;23.268;2022-08-23T03:28:00;8.83;;;7.43;;
11877;SDS011;5998;42.676;23.268;2022-08-23T03:30:29;8.50;;;7.70;;
11877;SDS011;5998;42.676;23.268;2022-08-23T03:32:57;10.10;;;9.07;;
11877;SDS011;5998;42.676;23.268;2022-08-23T03:35:24;11.37;;;10.17;;
11877;SDS011;5998;42.676;23.268;2022-08-23T03:37:51;12.07;;;10.87;;
11877;SDS011;5998;42.676;23.268;2022-08-23T03:40:19;10.27;;;9.27;;
11877;SDS011;5998;42.676;23.268;2022-08-23T03:42:48;11.80;;;10.63;;
11877;SDS011;5998;42.676;23.268;2022-08-23T03:45:15;12.73;;;10.17;;
11877;SDS011;5998;42.676;23.268;2022-08-23T03:47:42;14.37;;;11.60;;
11877;SDS011;5998;42.676;23.268;2022-08-23T03:50:09;17.67;;;11.60;;
11877;SDS011;5998;42.676;23.268;2022-08-23T03:52:36;12.83;;;11.27;;
11877;SDS011;5998;42.676;23.268;2022-08-23T03:55:03;15.30;;;12.67;;
11877;SDS011;5998;42.676;23.268;2022-08-23T03:57:30;16.10;;;12.17;;
11877;SDS011;5998;42.676;23.268;2022-08-23T03:59:58;15.50;;;13.90;;
11877;SDS011;5998;42.676;23.268;2022-08-23T04:02:25;22.73;;;15.97;;
11877;SDS011;5998;42.676;23.268;2022-08-23T04:04:52;19.67;;;16.27;;
11877;SDS011;5998;42.676;23.268;2022-08-23T04:07:19;24.77;;;17.27;;
11877;SDS011;5998;42.676;23.268;2022-08-23T04:09:46;23.30;;;18.00;;
11877;SDS011;5998;42.676;23.268;2022-08-23T04:12:13;23.00;;;17.83;;
11877;SDS011;5998;42.676;23.268;2022-08-23T04:14:40;20.07;;;17.97;;
11877;SDS011;5998;42.676;23.268;2022-08-23T04:17:08;24.37;;;18.57;;
11877;SDS011;5998;42.676;23.268;2022-08-23T04:19:35;22.37;;;18.77;;
11877;SDS011;5998;42.676;23.268;2022-08-23T04:22:02;26.40;;;18.80;;
11877;SDS011;5998;42.676;23.268;2022-08-23T04:24:28;20.10;;;17.93;;
11877;SDS011;5998;42.676;23.268;2022-08-23T04:26:55;25.77;;;19.00;;
11877;SDS011;5998;42.676;23.268;2022-08-23T04:29:22;24.20;;;19.10;;
11877;SDS011;5998;42.676;23.268;2022-08-23T04:31:48;24.70;;;18.40;;
11877;SDS011;5998;42.676;23.268;2022-08-23T04:34:17;22.43;;;17.23;;
11877;SDS011;5998;42.676;23.268;2022-08-23T04:36:44;22.67;;;18.20;;
11877;SDS011;5998;42.676;23.268;2022-08-23T04:39:11;20.63;;;17.60;;
11877;SDS011;5998;42.676;23.268;2022-08-23T04:41:38;23.03;;;20.23;;
11877;SDS011;5998;42.676;23.268;2022-08-23T04:44:22;23.13;;;18.77;;
11877;SDS011;5998;42.676;23.268;2022-08-23T04:46:49;32.07;;;22.13;;
11877;SDS011;5998;42.676;23.268;2022-08-23T04:49:18;31.50;;;22.50;;
11877;SDS011;5998;42.676;23.268;2022-08-23T04:51:47;30.77;;;23.57;;
11877;SDS011;5998;42.676;23.268;2022-08-23T04:54:16;27.73;;;23.33;;
11877;SDS011;5998;42.676;23.268;2022-08-23T04:56:43;31.97;;;24.67;;
11877;SDS011;5998;42.676;23.268;2022-08-23T04:59:09;29.00;;;25.13;;
11877;SDS011;5998;42.676;23.268;2022-08-23T05:01:36;35.67;;;26.07;;
11877;SDS011;5998;42.676;23.268;2022-08-23T05:04:03;38.40;;;28.40;;
11877;SDS011;5998;42.676;23.268;2022-08-23T05:06:32;35.67;;;27.60;;
11877;SDS011;5998;42.676;23.268;2022-08-23T05:08:58;37.10;;;28.20;;
11877;SDS011;5998;42.676;23.268;2022-08-23T05:11:25;35.87;;;28.40;;
11877;SDS011;5998;42.676;23.268;2022-08-23T05:13:53;36.20;;;28.70;;
11877;SDS011;5998;42.676;23.268;2022-08-23T05:16:20;38.93;;;29.53;;
11877;SDS011;5998;42.676;23.268;2022-08-23T05:18:47;37.47;;;28.73;;
11877;SDS011;5998;42.676;23.268;2022-08-23T05:21:14;40.53;;;29.27;;
11877;SDS011;5998;42.676;23.268;2022-08-23T05:23:43;33.33;;;26.10;;
11877;SDS011;5998;42.676;23.268;2022-08-23T05:26:10;34.97;;;27.80;;
11877;SDS011;5998;42.676;23.268;2022-08-23T05:28:39;34.40;;;27.13;;
11877;SDS011;5998;42.676;23.268;2022-08-23T05:31:09;31.77;;;23.83;;
11877;SDS011;5998;42.676;23.268;2022-08-23T05:33:39;28.00;;;22.50;;
11877;SDS011;5998;42.676;23.268;2022-08-23T05:36:07;28.03;;;24.13;;
11877;SDS011;5998;42.676;23.268;2022-08-23T05:38:36;25.47;;;22.83;;
11877;SDS011;5998;42.676;23.268;2022-08-23T05:41:05;28.33;;;21.80;;
11877;SDS011;5998;42.676;23.268;2022-08-23T05:43:33;23.60;;;21.00;;
11877;SDS011;5998;42.676;23.268;2022-08-23T05:46:01;21.70;;;19.50;;
11877;SDS011;5998;42.676;23.268;2022-08-23T05:48:29;21.27;;;19.03;;
11877;SDS011;5998;42.676;23.268;2022-08-23T05:51:06;22.37;;;19.70;;
11877;SDS011;5998;42.676;23.268;2022-08-23T05:53:33;19.50;;;17.50;;
11877;SDS011;5998;42.676;23.268;2022-08-23T05:56:08;18.90;;;16.90;;
11877;SDS011;5998;42.676;23.268;2022-08-23T05:58:36;18.77;;;16.87;;
11877;SDS011;5998;42.676;23.268;2022-08-23T06:01:03;25.07;;;17.33;;
11877;SDS011;5998;42.676;23.268;2022-08-23T06:03:31;22.00;;;17.33;;
11877;SDS011;5998;42.676;23.268;2022-08-23T06:05:58;18.33;;;16.50;;
11877;SDS011;5998;42.676;23.268;2022-08-23T06:08:25;17.50;;;15.70;;
11877;SDS011;5998;42.676;23.268;2022-08-23T06:10:58;18.10;;;15.57;;
11877;SDS011;5998;42.676;23.268;2022-08-23T06:13:26;16.97;;;15.30;;
11877;SDS011;5998;42.676;23.268;2022-08-23T06:15:54;16.60;;;14.97;;
11877;SDS011;5998;42.676;23.268;2022-08-23T06:18:21;20.13;;;15.83;;
11877;SDS011;5998;42.676;23.268;2022-08-23T06:20:56;18.33;;;16.20;;
11877;SDS011;5998;42.676;23.268;2022-08-23T06:23:25;17.93;;;16.03;;
11877;SDS011;5998;42.676;23.268;2022-08-23T06:25:51;18.13;;;15.50;;
11877;SDS011;5998;42.676;23.268;2022-08-23T06:28:18;17.30;;;15.53;;
11877;SDS011;5998;42.676;23.268;2022-08-23T06:30:46;19.43;;;16.20;;
11877;SDS011;5998;42.676;23.268;2022-08-23T06:33:13;19.20;;;15.83;;
11877;SDS011;5998;42.676;23.268;2022-08-23T06:35:40;19.60;;;17.70;;
11877;SDS011;5998;42.676;23.268;2022-08-23T06:38:07;18.27;;;15.87;;
11877;SDS011;5998;42.676;23.268;2022-08-23T06:40:33;17.27;;;15.47;;
11877;SDS011;5998;42.676;23.268;2022-08-23T06:43:00;16.17;;;14.57;;
11877;SDS011;5998;42.676;23.268;2022-08-23T06:45:28;16.97;;;15.23;;
11877;SDS011;5998;42.676;23.268;2022-08-23T06:47:56;18.53;;;14.63;;
11877;SDS011;5998;42.676;23.268;2022-08-23T06:50:23;15.70;;;14.00;;
11877;SDS011;5998;42.676;23.268;2022-08-23T06:52:50;15.37;;;13.77;;
11877;SDS011;5998;42.676;23.268;2022-08-23T06:55:18;17.80;;;13.60;;
11877;SDS011;5998;42.676;23.268;2022-08-23T06:57:44;13.90;;;12.40;;
11877;SDS011;5998;42.676;23.268;2022-08-23T07:00:12;15.03;;;13.43;;
11877;SDS011;5998;42.676;23.268;2022-08-23T07:02:39;15.80;;;13.30;;
11877;SDS011;5998;42.676;23.268;2022-08-23T07:05:08;15.70;;;13.83;;
11877;SDS011;5998;42.676;23.268;2022-08-23T07:07:34;15.03;;;13.37;;
11877;SDS011;5998;42.676;23.268;2022-08-23T07:10:01;14.20;;;12.70;;
11877;SDS011;5998;42.676;23.268;2022-08-23T07:12:28;15.63;;;13.53;;
11877;SDS011;5998;42.676;23.268;2022-08-23T07:14:55;15.47;;;13.80;;
11877;SDS011;5998;42.676;23.268;2022-08-23T07:17:22;15.60;;;13.47;;
11877;SDS011;5998;42.676;23.268;2022-08-23T07:19:49;13.20;;;11.77;;
11877;SDS011;5998;42.676;23.268;2022-08-23T07:22:17;17.63;;;14.10;;
11877;SDS011;5998;42.676;23.268;2022-08-23T07:24:44;15.10;;;13.43;;
11877;SDS011;5998;42.676;23.268;2022-08-23T07:27:11;12.93;;;11.63;;
11877;SDS011;5998;42.676;23.268;2022-08-23T07:29:38;16.07;;;13.07;;
11877;SDS011;5998;42.676;23.268;2022-08-23T07:32:05;15.20;;;13.30;;
11877;SDS011;5998;42.676;23.268;2022-08-23T07:34:32;14.57;;;13.10;;
11877;SDS011;5998;42.676;23.268;2022-08-23T07:36:59;16.70;;;13.43;;
11877;SDS011;5998;42.676;23.268;2022-08-23T07:39:27;15.23;;;13.67;;
11877;SDS011;5998;42.676;23.268;2022-08-23T07:41:57;18.97;;;13.90;;
11877;SDS011;5998;42.676;23.268;2022-08-23T07:44:24;14.50;;;12.60;;
11877;SDS011;5998;42.676;23.268;2022-08-23T07:46:51;21.20;;;14.27;;
11877;SDS011;5998;42.676;23.268;2022-08-23T07:49:17;17.23;;;14.67;;
11877;SDS011;5998;42.676;23.268;2022-08-23T07:51:45;13.03;;;11.63;;
11877;SDS011;5998;42.676;23.268;2022-08-23T07:54:14;16.37;;;14.67;;
11877;SDS011;5998;42.676;23.268;2022-08-23T07:56:43;18.87;;;15.00;;
11877;SDS011;5998;42.676;23.268;2022-08-23T07:59:11;22.43;;;15.97;;
11877;SDS011;5998;42.676;23.268;2022-08-23T08:01:39;16.77;;;14.97;;
11877;SDS011;5998;42.676;23.268;2022-08-23T08:04:07;17.03;;;13.93;;
11877;SDS011;5998;42.676;23.268;2022-08-23T08:06:37;15.10;;;13.50;;
11877;SDS011;5998;42.676;23.268;2022-08-23T08:09:05;19.63;;;14.10;;
11877;SDS011;5998;42.676;23.268;2022-08-23T08:11:33;16.60;;;14.20;;
11877;SDS011;5998;42.676;23.268;2022-08-23T08:14:04;15.70;;;12.57;;
11877;SDS011;5998;42.676;23.268;2022-08-23T08:16:33;17.43;;;14.67;;
11877;SDS011;5998;42.676;23.268;2022-08-23T08:19:03;15.73;;;14.13;;
11877;SDS011;5998;42.676;23.268;2022-08-23T08:21:31;14.27;;;12.43;;
11877;SDS011;5998;42.676;23.268;2022-08-23T08:23:59;18.33;;;14.03;;
11877;SDS011;5998;42.676;23.268;2022-08-23T08:26:26;15.90;;;14.30;;
11877;SDS011;5998;42.676;23.268;2022-08-23T08:28:54;12.50;;;11.40;;
11877;SDS011;5998;42.676;23.268;2022-08-23T08:31:22;14.30;;;12.80;;
11877;SDS011;5998;42.676;23.268;2022-08-23T08:33:50;14.90;;;13.43;;
11877;SDS011;5998;42.676;23.268;2022-08-23T08:36:27;16.00;;;14.07;;
11877;SDS011;5998;42.676;23.268;2022-08-23T08:38:59;15.43;;;13.80;;
11877;SDS011;5998;42.676;23.268;2022-08-23T08:41:31;16.23;;;14.37;;
11877;SDS011;5998;42.676;23.268;2022-08-23T08:44:07;16.17;;;14.43;;
11877;SDS011;5998;42.676;23.268;2022-08-23T08:46:45;16.13;;;14.40;;
11877;SDS011;5998;42.676;23.268;2022-08-23T08:49:15;16.57;;;14.07;;
11877;SDS011;5998;42.676;23.268;2022-08-23T08:51:49;16.17;;;14.53;;
11877;SDS011;5998;42.676;23.268;2022-08-23T08:54:20;16.03;;;14.43;;
11877;SDS011;5998;42.676;23.268;2022-08-23T08:56:51;17.30;;;15.50;;
11877;SDS011;5998;42.676;23.268;2022-08-23T08:59:21;16.97;;;15.17;;
11877;SDS011;5998;42.676;23.268;2022-08-23T09:01:51;16.43;;;14.73;;
11877;SDS011;5998;42.676;23.268;2022-08-23T09:04:18;17.53;;;15.63;;
11877;SDS011;5998;42.676;23.268;2022-08-23T09:06:49;18.20;;;15.23;;
11877;SDS011;5998;42.676;23.268;2022-08-23T09:09:31;17.97;;;15.67;;
11877;SDS011;5998;42.676;23.268;2022-08-23T09:12:15;17.07;;;15.20;;
11877;SDS011;5998;42.676;23.268;2022-08-23T09:14:57;17.83;;;13.13;;
11877;SDS011;5998;42.676;23.268;2022-08-23T09:17:42;19.80;;;14.77;;
11877;SDS011;5998;42.676;23.268;2022-08-23T09:20:13;15.60;;;14.07;;
11877;SDS011;5998;42.676;23.268;2022-08-23T09:22:43;16.07;;;14.57;;
11877;SDS011;5998;42.676;23.268;2022-08-23T09:25:13;16.87;;;13.77;;
11877;SDS011;5998;42.676;23.268;2022-08-23T09:27:41;15.33;;;12.43;;
11877;SDS011;5998;42.676;23.268;2022-08-23T09:30:10;14.07;;;12.67;;
11877;SDS011;5998;42.676;23.268;2022-08-23T09:32:39;14.23;;;12.00;;
11877;SDS011;5998;42.676;23.268;2022-08-23T09:35:13;14.13;;;12.73;;
11877;SDS011;5998;42.676;23.268;2022-08-23T09:37:46;13.20;;;11.90;;
11877;SDS011;5998;42.676;23.268;2022-08-23T09:40:17;16.15;;;14.38;;
11877;SDS011;5998;42.676;23.268;2022-08-23T09:42:49;15.77;;;14.18;;
11877;SDS011;5998;42.676;23.268;2022-08-23T09:45:30;12.70;;;11.18;;
11877;SDS011;5998;42.676;23.268;2022-08-23T09:48:00;17.98;;;14.20;;
11877;SDS011;5998;42.676;23.268;2022-08-23T09:50:28;18.13;;;13.80;;
11877;SDS011;5998;42.676;23.268;2022-08-23T09:52:58;16.03;;;14.33;;
11877;SDS011;5998;42.676;23.268;2022-08-23T09:55:29;18.47;;;16.10;;
11877;SDS011;5998;42.676;23.268;2022-08-23T09:57:59;18.60;;;13.90;;
11877;SDS011;5998;42.676;23.268;2022-08-23T10:00:31;14.27;;;12.87;;
11877;SDS011;5998;42.676;23.268;2022-08-23T10:05:48;17.23;;;12.37;;
11877;SDS011;5998;42.676;23.268;2022-08-23T10:08:20;16.97;;;14.27;;
11877;SDS011;5998;42.676;23.268;2022-08-23T10:10:50;17.00;;;15.33;;
11877;SDS011;5998;42.676;23.268;2022-08-23T10:13:18;15.43;;;13.83;;
11877;SDS011;5998;42.676;23.268;2022-08-23T10:15:48;15.40;;;13.67;;
11877;SDS011;5998;42.676;23.268;2022-08-23T10:18:26;14.33;;;13.03;;
11877;SDS011;5998;42.676;23.268;2022-08-23T10:21:02;15.17;;;12.80;;
11877;SDS011;5998;42.676;23.268;2022-08-23T10:23:37;13.27;;;11.97;;
11877;SDS011;5998;42.676;23.268;2022-08-23T10:26:15;12.93;;;11.63;;
11877;SDS011;5998;42.676;23.268;2022-08-23T10:28:50;14.10;;;12.60;;
11877;SDS011;5998;42.676;23.268;2022-08-23T10:31:41;14.53;;;13.10;;
11877;SDS011;5998;42.676;23.268;2022-08-23T10:34:25;13.53;;;11.83;;
11877;SDS011;5998;42.676;23.268;2022-08-23T10:37:06;13.90;;;12.57;;
11877;SDS011;5998;42.676;23.268;2022-08-23T10:39:48;11.82;;;10.63;;
11877;SDS011;5998;42.676;23.268;2022-08-23T10:42:26;14.60;;;11.48;;
11877;SDS011;5998;42.676;23.268;2022-08-23T10:45:02;12.35;;;11.07;;
11877;SDS011;5998;42.676;23.268;2022-08-23T10:47:42;13.60;;;11.95;;
11877;SDS011;5998;42.676;23.268;2022-08-23T10:50:19;12.48;;;11.10;;
11877;SDS011;5998;42.676;23.268;2022-08-23T10:52:48;11.27;;;10.10;;
11877;SDS011;5998;42.676;23.268;2022-08-23T10:55:22;11.15;;;10.05;;
11877;SDS011;5998;42.676;23.268;2022-08-23T10:58:09;11.07;;;10.07;;
11877;SDS011;5998;42.676;23.268;2022-08-23T11:00:40;11.45;;;10.23;;
11877;SDS011;5998;42.676;23.268;2022-08-23T11:03:10;9.60;;;8.80;;
11877;SDS011;5998;42.676;23.268;2022-08-23T11:08:55;10.23;;;9.15;;
11877;SDS011;5998;42.676;23.268;2022-08-23T11:14:24;10.98;;;9.90;;
11877;SDS011;5998;42.676;23.268;2022-08-23T11:16:55;12.02;;;8.95;;
11877;SDS011;5998;42.676;23.268;2022-08-23T11:19:47;10.00;;;9.00;;
11877;SDS011;5998;42.676;23.268;2022-08-23T11:22:17;11.48;;;9.48;;
11877;SDS011;5998;42.676;23.268;2022-08-23T11:24:50;10.13;;;9.13;;
11877;SDS011;5998;42.676;23.268;2022-08-23T11:27:30;9.80;;;8.88;;
11877;SDS011;5998;42.676;23.268;2022-08-23T11:33:05;12.02;;;9.93;;
11877;SDS011;5998;42.676;23.268;2022-08-23T11:35:40;10.20;;;8.85;;
11877;SDS011;5998;42.676;23.268;2022-08-23T11:38:10;11.05;;;8.85;;
11877;SDS011;5998;42.676;23.268;2022-08-23T11:40:54;9.35;;;8.55;;
11877;SDS011;5998;42.676;23.268;2022-08-23T11:43:28;8.85;;;7.85;;
11877;SDS011;5998;42.676;23.268;2022-08-23T11:49:10;12.57;;;9.52;;
11877;SDS011;5998;42.676;23.268;2022-08-23T11:51:58;8.48;;;7.72;;
11877;SDS011;5998;42.676;23.268;2022-08-23T11:54:40;8.30;;;7.50;;
11877;SDS011;5998;42.676;23.268;2022-08-23T11:57:22;8.75;;;7.95;;
11877;SDS011;5998;42.676;23.268;2022-08-23T12:00:03;8.95;;;8.05;;
11877;SDS011;5998;42.676;23.268;2022-08-23T12:02:42;10.68;;;8.68;;
11877;SDS011;5998;42.676;23.268;2022-08-23T12:05:22;8.77;;;7.88;;
11877;SDS011;5998;42.676;23.268;2022-08-23T12:11:09;8.98;;;8.07;;
11877;SDS011;5998;42.676;23.268;2022-08-23T12:13:46;9.40;;;8.50;;
11877;SDS011;5998;42.676;23.268;2022-08-23T12:16:26;11.43;;;9.32;;
11877;SDS011;5998;42.676;23.268;2022-08-23T12:18:59;9.05;;;7.97;;
11877;SDS011;5998;42.676;23.268;2022-08-23T12:21:31;11.80;;;8.52;;
11877;SDS011;5998;42.676;23.268;2022-08-23T12:24:00;9.63;;;8.70;;
11877;SDS011;5998;42.676;23.268;2022-08-23T12:26:39;8.90;;;8.00;;
11877;SDS011;5998;42.676;23.268;2022-08-23T12:29:24;8.48;;;7.68;;
11877;SDS011;5998;42.676;23.268;2022-08-23T12:32:00;7.82;;;7.13;;
11877;SDS011;5998;42.676;23.268;2022-08-23T12:34:33;8.27;;;7.45;;
11877;SDS011;5998;42.676;23.268;2022-08-23T12:37:08;10.23;;;7.47;;
11877;SDS011;5998;42.676;23.268;2022-08-23T12:39:47;9.30;;;7.38;;
11877;SDS011;5998;42.676;23.268;2022-08-23T12:42:16;7.25;;;6.63;;
11877;SDS011;5998;42.676;23.268;2022-08-23T12:44:57;8.23;;;7.23;;
11877;SDS011;5998;42.676;23.268;2022-08-23T12:47:25;8.57;;;6.13;;
11877;SDS011;5998;42.676;23.268;2022-08-23T12:49:53;8.13;;;6.00;;
11877;SDS011;5998;42.676;23.268;2022-08-23T12:52:23;5.43;;;4.93;;
11877;SDS011;5998;42.676;23.268;2022-08-23T12:54:52;8.47;;;5.07;;
11877;SDS011;5998;42.676;23.268;2022-08-23T12:57:29;5.97;;;4.50;;
11877;SDS011;5998;42.676;23.268;2022-08-23T13:00:21;5.00;;;4.60;;
11877;SDS011;5998;42.676;23.268;2022-08-23T13:02:53;10.17;;;4.90;;
11877;SDS011;5998;42.676;23.268;2022-08-23T13:05:26;7.50;;;4.37;;
11877;SDS011;5998;42.676;23.268;2022-08-23T13:07:59;5.17;;;4.40;;
11877;SDS011;5998;42.676;23.268;2022-08-23T13:10:30;7.77;;;4.90;;
11877;SDS011;5998;42.676;23.268;2022-08-23T13:12:58;6.70;;;5.00;;
11877;SDS011;5998;42.676;23.268;2022-08-23T13:15:43;5.70;;;4.90;;
11877;SDS011;5998;42.676;23.268;2022-08-23T13:18:22;6.90;;;6.00;;
11877;SDS011;5998;42.676;23.268;2022-08-23T13:23:42;8.67;;;6.30;;
11877;SDS011;5998;42.676;23.268;2022-08-23T13:26:23;6.40;;;5.80;;
11877;SDS011;5998;42.676;23.268;2022-08-23T13:29:02;7.73;;;7.00;;
11877;SDS011;5998;42.676;23.268;2022-08-23T13:31:48;7.43;;;6.53;;
11877;SDS011;5998;42.676;23.268;2022-08-23T13:34:32;8.20;;;6.93;;
11877;SDS011;5998;42.676;23.268;2022-08-23T13:37:15;9.93;;;7.80;;
11877;SDS011;5998;42.676;23.268;2022-08-23T13:39:45;10.43;;;8.10;;
11877;SDS011;5998;42.676;23.268;2022-08-23T13:42:23;9.43;;;8.37;;
11877;SDS011;5998;42.676;23.268;2022-08-23T13:44:51;9.60;;;8.60;;
11877;SDS011;5998;42.676;23.268;2022-08-23T13:47:22;10.23;;;9.27;;
11877;SDS011;5998;42.676;23.268;2022-08-23T13:49:51;10.03;;;9.13;;
11877;SDS011;5998;42.676;23.268;2022-08-23T13:52:21;10.53;;;9.23;;
11877;SDS011;5998;42.676;23.268;2022-08-23T13:54:47;11.90;;;9.50;;
11877;SDS011;5998;42.676;23.268;2022-08-23T13:57:15;12.83;;;9.80;;
11877;SDS011;5998;42.676;23.268;2022-08-23T13:59:46;9.87;;;8.57;;
11877;SDS011;5998;42.676;23.268;2022-08-23T14:02:16;11.77;;;8.00;;
11877;SDS011;5998;42.676;23.268;2022-08-23T14:04:45;12.00;;;8.97;;
11877;SDS011;5998;42.676;23.268;2022-08-23T14:07:13;13.60;;;9.77;;
11877;SDS011;5998;42.676;23.268;2022-08-23T14:09:40;11.20;;;9.40;;
11877;SDS011;5998;42.676;23.268;2022-08-23T14:12:08;10.60;;;9.50;;
11877;SDS011;5998;42.676;23.268;2022-08-23T14:14:38;12.20;;;9.13;;
11877;SDS011;5998;42.676;23.268;2022-08-23T14:17:06;10.77;;;9.67;;
11877;SDS011;5998;42.676;23.268;2022-08-23T14:19:32;11.77;;;9.67;;
11877;SDS011;5998;42.676;23.268;2022-08-23T14:22:01;11.70;;;8.93;;
11877;SDS011;5998;42.676;23.268;2022-08-23T14:24:28;13.50;;;10.17;;
11877;SDS011;5998;42.676;23.268;2022-08-23T14:26:55;13.43;;;10.00;;
11877;SDS011;5998;42.676;23.268;2022-08-23T14:29:22;11.43;;;9.50;;
11877;SDS011;5998;42.676;23.268;2022-08-23T14:31:52;12.70;;;10.20;;
11877;SDS011;5998;42.676;23.268;2022-08-23T14:34:19;11.43;;;10.23;;
11877;SDS011;5998;42.676;23.268;2022-08-23T14:36:46;12.33;;;9.80;;
11877;SDS011;5998;42.676;23.268;2022-08-23T14:39:16;12.63;;;10.37;;
11877;SDS011;5998;42.676;23.268;2022-08-23T14:41:44;14.27;;;10.03;;
11877;SDS011;5998;42.676;23.268;2022-08-23T14:44:11;10.97;;;8.63;;
11877;SDS011;5998;42.676;23.268;2022-08-23T14:46:40;7.80;;;6.73;;
11877;SDS011;5998;42.676;23.268;2022-08-23T14:49:07;9.27;;;6.20;;
11877;SDS011;5998;42.676;23.268;2022-08-23T14:51:35;11.60;;;6.77;;
11877;SDS011;5998;42.676;23.268;2022-08-23T14:54:04;7.57;;;6.60;;
11877;SDS011;5998;42.676;23.268;2022-08-23T14:56:34;7.37;;;6.67;;
11877;SDS011;5998;42.676;23.268;2022-08-23T14:59:01;11.27;;;7.47;;
11877;SDS011;5998;42.676;23.268;2022-08-23T15:01:28;9.33;;;7.27;;
11877;SDS011;5998;42.676;23.268;2022-08-23T15:03:54;9.23;;;7.63;;
11877;SDS011;5998;42.676;23.268;2022-08-23T15:06:21;8.20;;;7.33;;
11877;SDS011;5998;42.676;23.268;2022-08-23T15:08:48;11.00;;;7.80;;